createdAt,value
2019-02-18T00:00:33.408Z,1012.56
2019-02-18T00:01:33.630Z,1012.57
2019-02-18T00:02:33.288Z,1012.60
2019-02-18T00:03:33.509Z,1012.55
2019-02-18T00:04:34.364Z,1012.58
2019-02-18T00:05:33.363Z,1012.57
2019-02-18T00:06:34.668Z,1012.56
2019-02-18T00:07:33.102Z,1012.58
2019-02-18T00:08:33.358Z,1012.56
2019-02-18T00:09:33.042Z,1012.56
2019-02-18T00:10:33.318Z,1012.54
2019-02-18T00:12:32.981Z,1012.59
2019-02-18T00:15:33.000Z,1012.58
2019-02-18T00:17:33.142Z,1012.60
2019-02-18T00:18:32.809Z,1012.60
2019-02-18T00:19:32.784Z,1012.61
2019-02-18T00:20:32.760Z,1012.60
2019-02-18T00:21:33.287Z,1012.59
2019-02-18T00:22:32.969Z,1012.64
2019-02-18T00:24:32.653Z,1012.63
2019-02-18T00:25:32.631Z,1012.65
2019-02-18T00:26:32.883Z,1012.62
2019-02-18T00:27:32.648Z,1012.58
2019-02-18T00:28:32.599Z,1012.55
2019-02-18T00:29:32.775Z,1012.54
2019-02-18T00:30:32.507Z,1012.54
2019-02-18T00:31:32.480Z,1012.51
2019-02-18T00:32:32.467Z,1012.53
2019-02-18T00:33:32.456Z,1012.51
2019-02-18T00:34:32.405Z,1012.53
2019-02-18T00:35:32.680Z,1012.53
2019-02-18T00:36:32.352Z,1012.54
2019-02-18T00:37:32.325Z,1012.51
2019-02-18T00:38:32.293Z,1012.51
2019-02-18T00:39:32.267Z,1012.53
2019-02-18T00:41:32.544Z,1012.51
2019-02-18T00:42:32.191Z,1012.55
2019-02-18T00:43:32.171Z,1012.55
2019-02-18T00:44:32.158Z,1012.55
2019-02-18T00:45:32.179Z,1012.51
2019-02-18T00:46:32.100Z,1012.56
2019-02-18T00:47:32.315Z,1012.53
2019-02-18T00:48:32.052Z,1012.52
2019-02-18T00:49:32.125Z,1012.54
2019-02-18T00:50:32.057Z,1012.50
2019-02-18T00:51:31.965Z,1012.51
2019-02-18T00:52:32.194Z,1012.49
2019-02-18T00:53:32.369Z,1012.51
2019-02-18T00:54:31.889Z,1012.53
2019-02-18T00:55:31.883Z,1012.55
2019-02-18T00:56:31.862Z,1012.56
2019-02-18T00:57:31.826Z,1012.54
2019-02-18T00:58:31.809Z,1012.52
2019-02-18T00:59:31.765Z,1012.53
2019-02-18T01:00:32.052Z,1012.54
2019-02-18T01:01:31.723Z,1012.54
2019-02-18T01:02:31.724Z,1012.56
2019-02-18T01:03:31.693Z,1012.54
2019-02-18T01:04:31.643Z,1012.59
2019-02-18T01:05:31.627Z,1012.56
2019-02-18T01:06:31.593Z,1012.57
2019-02-18T01:07:34.875Z,1012.57
2019-02-18T01:08:31.676Z,1012.56
2019-02-18T01:09:31.515Z,1012.52
2019-02-18T01:10:31.493Z,1012.55
2019-02-18T01:11:31.497Z,1012.53
2019-02-18T01:12:31.481Z,1012.57
2019-02-18T01:13:31.419Z,1012.55
2019-02-18T01:14:31.645Z,1012.57
2019-02-18T01:15:31.372Z,1012.54
2019-02-18T01:16:31.369Z,1012.52
2019-02-18T01:17:31.325Z,1012.54
2019-02-18T01:18:31.444Z,1012.55
2019-02-18T01:19:31.277Z,1012.54
2019-02-18T01:20:31.250Z,1012.54
2019-02-18T01:21:31.477Z,1012.54
2019-02-18T01:22:31.199Z,1012.54
2019-02-18T01:24:31.154Z,1012.52
2019-02-18T01:25:31.128Z,1012.53
2019-02-18T01:26:31.100Z,1012.52
2019-02-18T01:27:31.078Z,1012.49
2019-02-18T01:28:31.304Z,1012.49
2019-02-18T01:29:31.031Z,1012.50
2019-02-18T01:30:31.021Z,1012.50
2019-02-18T01:31:30.987Z,1012.52
2019-02-18T01:32:30.959Z,1012.48
2019-02-18T01:33:30.932Z,1012.47
2019-02-18T01:35:31.132Z,1012.47
2019-02-18T01:36:30.859Z,1012.48
2019-02-18T01:37:31.211Z,1012.48
2019-02-18T01:38:30.811Z,1012.47
2019-02-18T01:39:31.137Z,1012.47
2019-02-18T01:40:30.761Z,1012.48
2019-02-18T01:41:30.753Z,1012.48
2019-02-18T01:42:31.021Z,1012.49
2019-02-18T01:43:30.687Z,1012.50
2019-02-18T01:44:30.667Z,1012.49
2019-02-18T01:45:30.699Z,1012.45
2019-02-18T01:46:31.502Z,1012.47
2019-02-18T01:47:30.597Z,1012.45
2019-02-18T01:48:30.824Z,1012.46
2019-02-18T01:49:30.547Z,1012.46
2019-02-18T01:50:30.523Z,1012.45
2019-02-18T01:51:30.506Z,1012.42
2019-02-18T01:52:30.480Z,1012.41
2019-02-18T01:53:30.452Z,1012.37
2019-02-18T01:54:30.729Z,1012.39
2019-02-18T01:55:30.416Z,1012.38
2019-02-18T01:56:30.380Z,1012.36
2019-02-18T01:58:30.422Z,1012.36
2019-02-18T02:00:30.529Z,1012.32
2019-02-18T02:01:30.638Z,1012.30
2019-02-18T02:02:30.234Z,1012.31
2019-02-18T02:03:30.210Z,1012.30
2019-02-18T02:04:30.185Z,1012.32
2019-02-18T02:05:30.152Z,1012.29
2019-02-18T02:06:30.432Z,1012.35
2019-02-18T02:07:30.110Z,1012.28
2019-02-18T02:08:30.099Z,1012.31
2019-02-18T02:09:30.093Z,1012.30
2019-02-18T02:10:30.106Z,1012.33
2019-02-18T02:11:30.033Z,1012.32
2019-02-18T02:12:30.236Z,1012.32
2019-02-18T02:13:29.976Z,1012.30
2019-02-18T02:14:30.168Z,1012.29
2019-02-18T02:15:30.492Z,1012.29
2019-02-18T02:17:29.873Z,1012.27
2019-02-18T02:18:29.856Z,1012.27
2019-02-18T02:19:30.061Z,1012.25
2019-02-18T02:20:29.788Z,1012.25
2019-02-18T02:21:29.775Z,1012.28
2019-02-18T02:22:29.739Z,1012.30
2019-02-18T02:23:29.716Z,1012.30
2019-02-18T02:24:29.692Z,1012.30
2019-02-18T02:25:29.666Z,1012.30
2019-02-18T02:26:30.548Z,1012.32
2019-02-18T02:27:29.634Z,1012.27
2019-02-18T02:29:29.567Z,1012.28
2019-02-18T02:30:29.549Z,1012.28
2019-02-18T02:32:29.496Z,1012.23
2019-02-18T02:33:29.721Z,1012.25
2019-02-18T02:34:29.453Z,1012.25
2019-02-18T02:35:29.420Z,1012.23
2019-02-18T02:36:29.410Z,1012.18
2019-02-18T02:37:29.368Z,1012.19
2019-02-18T02:39:29.324Z,1012.19
2019-02-18T02:40:29.603Z,1012.17
2019-02-18T02:41:29.326Z,1012.18
2019-02-18T02:42:29.244Z,1012.15
2019-02-18T02:43:29.498Z,1012.18
2019-02-18T02:44:29.199Z,1012.16
2019-02-18T02:45:29.177Z,1012.20
2019-02-18T02:46:29.151Z,1012.19
2019-02-18T02:47:29.444Z,1012.23
2019-02-18T02:48:29.109Z,1012.21
2019-02-18T02:49:29.081Z,1012.20
2019-02-18T02:50:29.063Z,1012.20
2019-02-18T02:51:29.079Z,1012.21
2019-02-18T02:52:29.001Z,1012.17
2019-02-18T02:53:29.004Z,1012.18
2019-02-18T02:54:29.264Z,1012.16
2019-02-18T02:55:28.928Z,1012.16
2019-02-18T02:56:28.919Z,1012.16
2019-02-18T02:57:28.880Z,1012.15
2019-02-18T02:59:28.826Z,1012.23
2019-02-18T03:00:28.807Z,1012.18
2019-02-18T03:01:29.052Z,1012.22
2019-02-18T03:02:28.756Z,1012.20
2019-02-18T03:03:28.727Z,1012.19
2019-02-18T03:04:28.718Z,1012.20
2019-02-18T03:05:28.687Z,1012.20
2019-02-18T03:06:28.662Z,1012.19
2019-02-18T03:07:29.027Z,1012.19
2019-02-18T03:08:28.602Z,1012.16
2019-02-18T03:09:28.601Z,1012.16
2019-02-18T03:10:28.562Z,1012.12
2019-02-18T03:11:28.532Z,1012.14
2019-02-18T03:12:28.504Z,1012.17
2019-02-18T03:13:28.866Z,1012.14
2019-02-18T03:14:28.795Z,1012.17
2019-02-18T03:15:28.451Z,1012.18
2019-02-18T03:16:28.415Z,1012.20
2019-02-18T03:17:28.399Z,1012.16
2019-02-18T03:18:28.363Z,1012.13
2019-02-18T03:19:28.650Z,1012.16
2019-02-18T03:20:28.345Z,1012.16
2019-02-18T03:21:28.291Z,1012.15
2019-02-18T03:22:28.272Z,1012.17
2019-02-18T03:23:28.310Z,1012.19
2019-02-18T03:24:28.220Z,1012.18
2019-02-18T03:25:28.524Z,1012.16
2019-02-18T03:26:28.163Z,1012.15
2019-02-18T03:27:28.133Z,1012.16
2019-02-18T03:28:28.124Z,1012.18
2019-02-18T03:29:28.107Z,1012.14
2019-02-18T03:30:28.077Z,1012.16
2019-02-18T03:31:28.367Z,1012.13
2019-02-18T03:32:28.021Z,1012.19
2019-02-18T03:33:27.990Z,1012.17
2019-02-18T03:34:27.972Z,1012.18
2019-02-18T03:35:28.001Z,1012.17
2019-02-18T03:36:27.983Z,1012.23
2019-02-18T03:37:28.188Z,1012.17
2019-02-18T03:38:31.666Z,1012.18
2019-02-18T03:39:27.855Z,1012.18
2019-02-18T03:40:27.811Z,1012.17
2019-02-18T03:41:27.787Z,1012.17
2019-02-18T03:42:27.800Z,1012.17
2019-02-18T03:43:27.734Z,1012.16
2019-02-18T03:44:28.018Z,1012.14
2019-02-18T03:45:27.690Z,1012.10
2019-02-18T03:46:27.676Z,1012.11
2019-02-18T03:47:27.643Z,1012.10
2019-02-18T03:49:27.591Z,1012.12
2019-02-18T03:50:27.708Z,1012.08
2019-02-18T03:52:27.510Z,1012.13
2019-02-18T03:53:27.490Z,1012.10
2019-02-18T03:54:27.507Z,1012.13
2019-02-18T03:55:27.444Z,1012.11
2019-02-18T03:56:27.434Z,1012.10
2019-02-18T03:57:27.380Z,1012.12
2019-02-18T03:59:27.342Z,1012.12
2019-02-18T04:00:27.321Z,1012.14
2019-02-18T04:01:27.279Z,1012.13
2019-02-18T04:02:27.275Z,1012.15
2019-02-18T04:03:27.278Z,1012.15
2019-02-18T04:04:27.203Z,1012.16
2019-02-18T04:05:27.485Z,1012.12
2019-02-18T04:06:27.160Z,1012.14
2019-02-18T04:07:27.153Z,1012.10
2019-02-18T04:08:27.757Z,1012.11
2019-02-18T04:09:27.116Z,1012.16
2019-02-18T04:10:27.065Z,1012.09
2019-02-18T04:11:27.046Z,1012.10
2019-02-18T04:12:27.260Z,1012.09
2019-02-18T04:13:26.984Z,1012.07
2019-02-18T04:18:27.553Z,1012.09
2019-02-18T04:19:26.847Z,1012.05
2019-02-18T04:20:26.811Z,1012.09
2019-02-18T04:21:26.827Z,1012.09
2019-02-18T04:22:27.015Z,1012.09
2019-02-18T04:23:26.850Z,1012.06
2019-02-18T04:24:26.862Z,1012.06
2019-02-18T04:25:27.096Z,1012.08
2019-02-18T04:26:26.692Z,1012.08
2019-02-18T04:29:26.591Z,1012.05
2019-02-18T04:30:26.569Z,1012.08
2019-02-18T04:31:26.867Z,1012.09
2019-02-18T04:33:55.662Z,1012.08
2019-02-18T04:34:26.451Z,1012.07
2019-02-18T04:35:26.492Z,1012.09
2019-02-18T04:36:26.400Z,1012.08
2019-02-18T04:37:26.928Z,1012.08
2019-02-18T04:38:26.366Z,1012.08
2019-02-18T04:39:26.384Z,1012.03
2019-02-18T04:40:26.321Z,1012.04
2019-02-18T04:41:26.297Z,1012.09
2019-02-18T04:42:26.260Z,1012.06
2019-02-18T04:43:26.593Z,1012.12
2019-02-18T04:44:26.222Z,1012.06
2019-02-18T04:45:26.183Z,1012.10
2019-02-18T04:46:26.148Z,1012.08
2019-02-18T04:47:26.136Z,1012.02
2019-02-18T04:48:26.154Z,1012.01
2019-02-18T04:49:26.340Z,1012.05
2019-02-18T04:50:26.054Z,1012.07
2019-02-18T04:51:26.095Z,1012.03
2019-02-18T04:52:26.078Z,1012.07
2019-02-18T04:53:25.971Z,1012.04
2019-02-18T04:54:25.977Z,1012.03
2019-02-18T04:55:26.396Z,1012.03
2019-02-18T04:56:25.914Z,1012.01
2019-02-18T04:57:26.001Z,1012.01
2019-02-18T04:58:25.853Z,1011.99
2019-02-18T04:59:25.986Z,1012.02
2019-02-18T05:00:25.846Z,1011.97
2019-02-18T05:01:26.099Z,1012.02
2019-02-18T05:02:25.751Z,1011.99
2019-02-18T05:03:25.764Z,1012.02
2019-02-18T05:04:25.742Z,1011.99
2019-02-18T05:05:25.663Z,1012.05
2019-02-18T05:06:25.726Z,1012.03
2019-02-18T05:07:25.628Z,1012.00
2019-02-18T05:08:25.841Z,1012.01
2019-02-18T05:09:25.612Z,1012.00
2019-02-18T05:10:25.579Z,1012.03
2019-02-18T05:11:25.506Z,1012.00
2019-02-18T05:12:25.897Z,1012.04
2019-02-18T05:13:25.464Z,1011.98
2019-02-18T05:14:25.461Z,1012.00
2019-02-18T05:15:26.570Z,1012.00
2019-02-18T05:16:25.724Z,1012.02
2019-02-18T05:17:25.498Z,1012.02
2019-02-18T05:18:25.358Z,1011.98
2019-02-18T05:19:25.321Z,1011.97
2019-02-18T05:20:25.275Z,1011.98
2019-02-18T05:21:25.265Z,1011.99
2019-02-18T05:22:25.525Z,1012.00
2019-02-18T05:23:25.361Z,1011.99
2019-02-18T05:24:25.169Z,1011.99
2019-02-18T05:25:25.225Z,1011.99
2019-02-18T05:26:25.212Z,1011.99
2019-02-18T05:27:33.091Z,1011.96
2019-02-18T05:28:25.076Z,1011.99
2019-02-18T05:29:25.343Z,1012.02
2019-02-18T05:30:25.127Z,1011.96
2019-02-18T05:31:24.981Z,1011.99
2019-02-18T05:32:24.997Z,1011.95
2019-02-18T05:33:24.932Z,1011.94
2019-02-18T05:34:24.907Z,1011.94
2019-02-18T05:35:24.925Z,1011.92
2019-02-18T05:36:28.251Z,1011.94
2019-02-18T05:38:24.825Z,1011.95
2019-02-18T05:39:24.844Z,1011.95
2019-02-18T05:40:24.777Z,1011.99
2019-02-18T05:41:24.822Z,1011.95
2019-02-18T05:42:24.731Z,1011.98
2019-02-18T05:43:25.017Z,1011.98
2019-02-18T05:44:24.651Z,1011.98
2019-02-18T05:45:24.689Z,1011.99
2019-02-18T05:46:24.618Z,1011.98
2019-02-18T05:47:24.586Z,1011.93
2019-02-18T05:48:24.557Z,1011.96
2019-02-18T05:49:24.529Z,1011.96
2019-02-18T05:50:24.761Z,1011.97
2019-02-18T05:51:24.496Z,1011.97
2019-02-18T05:52:24.486Z,1011.95
2019-02-18T05:53:24.438Z,1011.96
2019-02-18T05:54:24.449Z,1011.96
2019-02-18T05:55:24.369Z,1011.96
2019-02-18T05:56:27.442Z,1012.00
2019-02-18T05:57:24.640Z,1011.99
2019-02-18T05:58:24.525Z,1011.98
2019-02-18T05:59:25.417Z,1011.96
2019-02-18T06:00:24.447Z,1011.96
2019-02-18T06:01:24.769Z,1011.99
2019-02-18T06:02:24.835Z,1012.00
2019-02-18T06:04:27.659Z,1012.00
2019-02-18T06:05:24.120Z,1012.03
2019-02-18T06:06:24.110Z,1012.05
2019-02-18T06:07:24.099Z,1012.06
2019-02-18T06:08:24.465Z,1012.05
2019-02-18T06:09:29.946Z,1012.04
2019-02-18T06:11:24.090Z,1012.03
2019-02-18T06:12:24.147Z,1012.09
2019-02-18T06:13:24.725Z,1012.04
2019-02-18T06:14:24.847Z,1012.04
2019-02-18T06:15:24.343Z,1012.06
2019-02-18T06:16:23.959Z,1012.00
2019-02-18T06:17:23.825Z,1012.10
2019-02-18T06:18:24.063Z,1012.11
2019-02-18T06:19:23.767Z,1012.08
2019-02-18T06:20:24.123Z,1012.09
2019-02-18T06:21:23.704Z,1012.10
2019-02-18T06:22:23.685Z,1012.12
2019-02-18T06:23:23.838Z,1012.12
2019-02-18T06:24:23.884Z,1012.12
2019-02-18T06:26:23.580Z,1012.19
2019-02-18T06:27:24.156Z,1012.18
2019-02-18T06:29:23.511Z,1012.21
2019-02-18T06:30:23.515Z,1012.23
2019-02-18T06:31:23.451Z,1012.22
2019-02-18T06:32:23.412Z,1012.25
2019-02-18T06:33:23.704Z,1012.22
2019-02-18T06:34:23.372Z,1012.27
2019-02-18T06:35:23.359Z,1012.27
2019-02-18T06:36:24.280Z,1012.26
2019-02-18T06:37:24.737Z,1012.30
2019-02-18T06:39:26.099Z,1012.24
2019-02-18T06:40:26.111Z,1012.28
2019-02-18T06:41:26.643Z,1012.32
2019-02-18T06:42:29.103Z,1012.29
2019-02-18T06:44:29.270Z,1012.33
2019-02-18T06:45:25.940Z,1012.33
2019-02-18T06:46:23.279Z,1012.32
2019-02-18T06:47:25.202Z,1012.32
2019-02-18T06:48:23.099Z,1012.31
2019-02-18T06:49:23.003Z,1012.31
2019-02-18T06:50:22.993Z,1012.33
2019-02-18T06:51:23.041Z,1012.34
2019-02-18T06:52:23.221Z,1012.35
2019-02-18T06:53:22.899Z,1012.34
2019-02-18T06:54:22.943Z,1012.37
2019-02-18T06:55:22.836Z,1012.36
2019-02-18T06:56:22.895Z,1012.37
2019-02-18T06:57:22.816Z,1012.40
2019-02-18T06:58:22.842Z,1012.38
2019-02-18T06:59:22.738Z,1012.40
2019-02-18T07:00:22.813Z,1012.34
2019-02-18T07:01:22.710Z,1012.39
2019-02-18T07:02:22.683Z,1012.36
2019-02-18T07:03:22.766Z,1012.43
2019-02-18T07:04:22.628Z,1012.43
2019-02-18T07:05:22.607Z,1012.44
2019-02-18T07:06:22.795Z,1012.44
2019-02-18T07:07:22.730Z,1012.47
2019-02-18T07:08:22.845Z,1012.47
2019-02-18T07:09:22.647Z,1012.46
2019-02-18T07:11:22.436Z,1012.51
2019-02-18T07:12:22.483Z,1012.44
2019-02-18T07:13:22.401Z,1012.42
2019-02-18T07:14:22.378Z,1012.48
2019-02-18T07:15:22.434Z,1012.44
2019-02-18T07:16:22.328Z,1012.47
2019-02-18T07:18:22.274Z,1012.51
2019-02-18T07:19:22.243Z,1012.54
2019-02-18T07:20:22.234Z,1012.53
2019-02-18T07:21:22.352Z,1012.49
2019-02-18T07:22:23.088Z,1012.51
2019-02-18T07:23:22.212Z,1012.50
2019-02-18T07:24:22.147Z,1012.48
2019-02-18T07:25:22.153Z,1012.47
2019-02-18T07:28:22.520Z,1012.53
2019-02-18T07:29:22.578Z,1012.57
2019-02-18T07:30:22.058Z,1012.54
2019-02-18T07:31:21.943Z,1012.50
2019-02-18T07:32:22.259Z,1012.52
2019-02-18T07:33:22.655Z,1012.59
2019-02-18T07:34:22.296Z,1012.61
2019-02-18T07:35:21.843Z,1012.61
2019-02-18T07:36:21.863Z,1012.59
2019-02-18T07:37:21.866Z,1012.60
2019-02-18T07:38:21.817Z,1012.58
2019-02-18T07:39:21.945Z,1012.56
2019-02-18T07:40:22.138Z,1012.59
2019-02-18T07:41:21.794Z,1012.61
2019-02-18T07:42:21.659Z,1012.61
2019-02-18T07:43:23.175Z,1012.67
2019-02-18T07:44:21.619Z,1012.67
2019-02-18T07:45:21.614Z,1012.71
2019-02-18T07:46:21.879Z,1012.68
2019-02-18T07:48:21.626Z,1012.70
2019-02-18T07:49:21.522Z,1012.69
2019-02-18T07:50:21.500Z,1012.70
2019-02-18T07:51:21.443Z,1012.69
2019-02-18T07:52:21.853Z,1012.70
2019-02-18T07:53:21.409Z,1012.66
2019-02-18T07:54:21.397Z,1012.67
2019-02-18T07:55:21.509Z,1012.73
2019-02-18T07:57:21.308Z,1012.74
2019-02-18T07:58:21.592Z,1012.69
2019-02-18T07:59:22.236Z,1012.68
2019-02-18T08:00:21.300Z,1012.68
2019-02-18T08:01:21.314Z,1012.71
2019-02-18T08:02:21.410Z,1012.70
2019-02-18T08:03:21.244Z,1012.71
2019-02-18T08:04:21.331Z,1012.69
2019-02-18T08:05:21.156Z,1012.73
2019-02-18T08:06:21.128Z,1012.71
2019-02-18T08:07:21.286Z,1012.72
2019-02-18T08:08:21.245Z,1012.75
2019-02-18T08:09:21.126Z,1012.76
2019-02-18T08:10:21.372Z,1012.85
2019-02-18T08:11:21.006Z,1012.92
2019-02-18T08:12:21.127Z,1012.88
2019-02-18T08:13:21.051Z,1012.96
2019-02-18T08:14:20.936Z,1012.97
2019-02-18T08:15:20.970Z,1013.00
2019-02-18T08:16:21.271Z,1013.01
2019-02-18T08:18:21.657Z,1012.83
2019-02-18T08:19:20.825Z,1012.82
2019-02-18T08:20:20.808Z,1012.83
2019-02-18T08:21:20.806Z,1012.80
2019-02-18T08:22:21.164Z,1012.80
2019-02-18T08:23:20.774Z,1012.83
2019-02-18T08:25:20.699Z,1012.83
2019-02-18T08:26:20.692Z,1012.86
2019-02-18T08:27:20.647Z,1012.88
2019-02-18T08:28:20.947Z,1012.82
2019-02-18T08:29:20.627Z,1012.66
2019-02-18T08:30:20.593Z,1012.65
2019-02-18T08:31:20.869Z,1012.67
2019-02-18T08:32:20.555Z,1012.65
2019-02-18T08:33:20.594Z,1012.63
2019-02-18T08:34:20.832Z,1012.65
2019-02-18T08:35:20.512Z,1012.64
2019-02-18T08:36:20.467Z,1012.67
2019-02-18T08:37:20.482Z,1012.65
2019-02-18T08:38:20.437Z,1012.66
2019-02-18T08:39:20.447Z,1012.65
2019-02-18T08:40:22.726Z,1012.67
2019-02-18T08:41:20.419Z,1012.69
2019-02-18T08:42:20.398Z,1012.70
2019-02-18T08:43:20.356Z,1012.70
2019-02-18T08:44:20.339Z,1012.71
2019-02-18T08:45:20.294Z,1012.68
2019-02-18T08:46:20.575Z,1012.72
2019-02-18T08:47:20.295Z,1012.73
2019-02-18T08:48:20.379Z,1012.69
2019-02-18T08:49:20.318Z,1012.68
2019-02-18T08:50:20.293Z,1012.69
2019-02-18T08:51:20.352Z,1012.77
2019-02-18T08:52:20.511Z,1012.74
2019-02-18T08:53:20.157Z,1012.74
2019-02-18T08:54:20.180Z,1012.70
2019-02-18T08:55:20.132Z,1012.71
2019-02-18T08:56:20.137Z,1012.73
2019-02-18T08:57:20.133Z,1012.72
2019-02-18T08:58:20.355Z,1012.68
2019-02-18T08:59:20.044Z,1012.63
2019-02-18T09:00:20.009Z,1012.63
2019-02-18T09:01:20.058Z,1012.63
2019-02-18T09:02:20.000Z,1012.67
2019-02-18T09:03:19.966Z,1012.61
2019-02-18T09:17:20.310Z,1012.72
2019-02-18T09:18:19.837Z,1012.70
2019-02-18T09:19:19.679Z,1012.72
2019-02-18T09:20:19.680Z,1012.74
2019-02-18T09:21:19.661Z,1012.77
2019-02-18T09:22:19.633Z,1012.75
2019-02-18T09:23:19.916Z,1012.71
2019-02-18T09:24:19.596Z,1012.72
2019-02-18T09:27:19.546Z,1012.73
2019-02-18T09:28:19.673Z,1012.74
2019-02-18T09:29:19.888Z,1012.71
2019-02-18T09:30:19.554Z,1012.73
2019-02-18T09:31:19.493Z,1012.75
2019-02-18T09:32:19.478Z,1012.83
2019-02-18T09:33:19.569Z,1012.78
2019-02-18T09:34:19.452Z,1012.84
2019-02-18T09:35:19.767Z,1012.80
2019-02-18T09:36:21.368Z,1012.82
2019-02-18T09:38:24.785Z,1012.86
2019-02-18T09:39:30.020Z,1012.83
2019-02-18T09:40:19.368Z,1012.86
2019-02-18T09:41:19.643Z,1012.81
2019-02-18T09:42:19.324Z,1012.83
2019-02-18T09:43:19.475Z,1012.81
2019-02-18T09:45:19.348Z,1012.80
2019-02-18T09:46:19.259Z,1012.81
2019-02-18T09:47:19.550Z,1012.82
2019-02-18T09:48:19.238Z,1012.84
2019-02-18T09:50:20.823Z,1013.43
2019-02-18T09:51:19.202Z,1013.50
2019-02-18T09:52:19.187Z,1013.08
2019-02-18T09:53:19.179Z,1012.93
2019-02-18T09:54:19.471Z,1013.05
2019-02-18T09:55:19.252Z,1013.14
2019-02-18T09:56:19.133Z,1013.22
2019-02-18T09:57:19.130Z,1013.34
2019-02-18T09:58:19.107Z,1013.34
2019-02-18T09:59:19.103Z,1013.21
2019-02-18T10:00:19.440Z,1013.03
2019-02-18T10:01:19.058Z,1012.96
2019-02-18T10:02:19.059Z,1013.22
2019-02-18T10:03:19.282Z,1013.26
2019-02-18T10:04:19.032Z,1013.26
2019-02-18T10:05:19.020Z,1013.26
2019-02-18T10:06:19.346Z,1013.13
2019-02-18T10:07:19.002Z,1013.11
2019-02-18T10:08:19.102Z,1013.21
2019-02-18T10:09:18.978Z,1013.25
2019-02-18T10:10:18.973Z,1013.46
2019-02-18T10:11:18.945Z,1013.98
2019-02-18T10:12:19.241Z,1014.26
2019-02-18T10:13:18.975Z,1014.31
2019-02-18T10:14:18.907Z,1014.24
2019-02-18T10:16:18.903Z,1014.41
2019-02-18T10:17:18.867Z,1014.10
2019-02-18T10:18:19.158Z,1013.74
2019-02-18T10:19:18.851Z,1013.62
2019-02-18T10:20:18.846Z,1013.56
2019-02-18T10:21:18.886Z,1013.55
2019-02-18T10:37:18.930Z,1013.36
2019-02-18T10:38:18.641Z,1013.58
2019-02-18T10:39:18.616Z,1013.47
2019-02-18T10:41:19.359Z,1012.90
2019-02-18T10:42:18.788Z,1012.92
2019-02-18T10:43:18.940Z,1012.96
2019-02-18T10:44:18.557Z,1013.02
2019-02-18T10:45:18.546Z,1013.08
2019-02-18T10:46:18.538Z,1013.28
2019-02-18T10:47:20.447Z,1013.55
2019-02-18T10:48:18.819Z,1013.41
2019-02-18T10:49:20.070Z,1013.08
2019-02-18T10:50:18.559Z,1012.82
2019-02-18T10:51:18.476Z,1012.77
2019-02-18T10:52:18.592Z,1012.51
2019-02-18T10:53:18.475Z,1012.27
2019-02-18T10:54:18.704Z,1012.42
2019-02-18T10:55:19.235Z,1013.03
2019-02-18T10:56:19.073Z,1013.35
2019-02-18T10:57:18.418Z,1013.18
2019-02-18T10:58:18.682Z,1012.71
2019-02-18T10:59:18.399Z,1012.47
2019-02-18T11:00:18.522Z,1012.55
2019-02-18T11:01:18.680Z,1012.77
2019-02-18T11:02:18.367Z,1012.91
2019-02-18T11:03:18.368Z,1013.03
2019-02-18T11:04:18.458Z,1013.09
2019-02-18T11:05:18.576Z,1012.87
2019-02-18T11:06:18.336Z,1012.79
2019-02-18T11:07:18.631Z,1012.67
2019-02-18T11:08:19.005Z,1012.59
2019-02-18T11:09:18.290Z,1012.52
2019-02-18T11:10:18.666Z,1012.43
2019-02-18T11:11:18.293Z,1012.36
2019-02-18T11:12:18.267Z,1012.40
2019-02-18T11:13:18.729Z,1012.39
2019-02-18T11:14:18.540Z,1012.34
2019-02-18T11:15:18.275Z,1012.31
2019-02-18T11:17:18.209Z,1012.22
2019-02-18T11:18:18.197Z,1012.25
2019-02-18T11:19:18.192Z,1012.22
2019-02-18T11:20:18.481Z,1012.18
2019-02-18T11:21:18.300Z,1012.12
2019-02-18T11:22:18.349Z,1012.13
2019-02-18T11:23:18.151Z,1012.19
2019-02-18T11:24:20.611Z,1012.22
2019-02-18T11:25:18.134Z,1012.18
2019-02-18T11:26:18.461Z,1012.22
2019-02-18T11:27:18.119Z,1012.24
2019-02-18T11:28:18.107Z,1012.19
2019-02-18T11:29:18.110Z,1012.18
2019-02-18T11:30:18.078Z,1012.14
2019-02-18T11:31:18.071Z,1012.11
2019-02-18T11:32:18.315Z,1012.12
2019-02-18T11:33:18.060Z,1012.10
2019-02-18T11:34:18.042Z,1012.06
2019-02-18T11:35:18.150Z,1012.03
2019-02-18T11:36:18.063Z,1011.94
2019-02-18T11:37:18.033Z,1011.93
2019-02-18T11:38:18.309Z,1011.94
2019-02-18T11:39:18.003Z,1012.00
2019-02-18T11:40:17.999Z,1012.00
2019-02-18T11:41:27.098Z,1012.09
2019-02-18T11:42:17.973Z,1012.11
2019-02-18T11:43:17.969Z,1012.10
2019-02-18T11:44:18.264Z,1012.06
2019-02-18T11:45:17.956Z,1012.08
2019-02-18T11:46:17.942Z,1012.03
2019-02-18T11:47:17.942Z,1011.97
2019-02-18T11:48:17.925Z,1011.99
2019-02-18T11:49:17.909Z,1011.94
2019-02-18T11:50:18.211Z,1011.90
2019-02-18T11:51:17.904Z,1011.92
2019-02-18T11:52:17.907Z,1011.94
2019-02-18T11:53:17.874Z,1011.95
2019-02-18T11:54:17.867Z,1011.99
2019-02-18T11:55:17.956Z,1012.02
2019-02-18T11:56:18.175Z,1011.96
2019-02-18T11:57:17.940Z,1011.94
2019-02-18T11:58:17.838Z,1011.92
2019-02-18T11:59:24.372Z,1012.05
2019-02-18T12:00:17.815Z,1012.00
2019-02-18T12:01:17.795Z,1011.87
2019-02-18T12:02:18.213Z,1011.86
2019-02-18T12:03:17.797Z,1011.86
2019-02-18T12:04:17.770Z,1011.91
2019-02-18T12:05:17.776Z,1011.84
2019-02-18T12:06:17.815Z,1011.80
2019-02-18T12:07:17.763Z,1011.85
2019-02-18T12:08:18.037Z,1011.96
2019-02-18T12:09:17.999Z,1011.95
2019-02-18T12:10:17.753Z,1011.83
2019-02-18T12:11:17.739Z,1011.84
2019-02-18T12:12:17.812Z,1011.87
2019-02-18T12:13:17.709Z,1011.82
2019-02-18T12:14:18.003Z,1011.90
2019-02-18T12:15:17.683Z,1011.80
2019-02-18T12:16:17.764Z,1011.83
2019-02-18T12:18:17.643Z,1011.81
2019-02-18T12:19:17.640Z,1011.78
2019-02-18T12:20:17.989Z,1011.81
2019-02-18T12:21:17.621Z,1011.82
2019-02-18T12:22:17.610Z,1011.66
2019-02-18T12:23:17.625Z,1011.69
2019-02-18T12:24:17.664Z,1011.76
2019-02-18T12:26:24.232Z,1011.77
2019-02-18T12:27:17.662Z,1011.78
2019-02-18T12:28:17.572Z,1011.86
2019-02-18T12:29:26.234Z,1011.86
2019-02-18T12:30:17.531Z,1011.78
2019-02-18T12:31:17.540Z,1011.71
2019-02-18T12:32:18.113Z,1011.69
2019-02-18T12:33:17.503Z,1011.58
2019-02-18T12:34:17.498Z,1011.54
2019-02-18T12:35:17.491Z,1011.51
2019-02-18T12:37:17.465Z,1011.57
2019-02-18T12:38:17.769Z,1011.47
2019-02-18T12:39:17.443Z,1011.46
2019-02-18T12:40:17.454Z,1011.35
2019-02-18T12:41:17.781Z,1011.32
2019-02-18T12:42:17.425Z,1011.34
2019-02-18T12:43:17.411Z,1011.39
2019-02-18T12:44:17.718Z,1011.41
2019-02-18T12:45:17.391Z,1011.28
2019-02-18T12:46:17.403Z,1011.32
2019-02-18T12:47:17.492Z,1011.30
2019-02-18T12:48:17.411Z,1011.30
2019-02-18T12:49:17.366Z,1011.33
2019-02-18T12:50:17.679Z,1011.31
2019-02-18T12:51:17.360Z,1011.25
2019-02-18T12:52:17.428Z,1011.19
2019-02-18T12:53:17.337Z,1011.19
2019-02-18T12:54:17.308Z,1011.21
2019-02-18T12:55:17.483Z,1011.21
2019-02-18T12:56:17.839Z,1011.27
2019-02-18T12:57:17.275Z,1011.28
2019-02-18T12:58:17.626Z,1011.37
2019-02-18T12:59:17.322Z,1011.19
2019-02-18T13:00:17.415Z,1011.29
2019-02-18T13:01:17.242Z,1011.27
2019-02-18T13:02:17.537Z,1011.16
2019-02-18T13:04:17.223Z,1011.11
2019-02-18T13:05:17.325Z,1010.94
2019-02-18T13:06:17.205Z,1010.91
2019-02-18T13:07:17.225Z,1010.93
2019-02-18T13:08:17.424Z,1010.99
2019-02-18T13:09:17.180Z,1010.82
2019-02-18T13:10:17.152Z,1010.80
2019-02-18T13:11:58.738Z,1010.84
2019-02-18T13:12:17.155Z,1010.77
2019-02-18T13:13:17.138Z,1010.76
2019-02-18T13:14:17.624Z,1010.80
2019-02-18T13:15:17.145Z,1010.78
2019-02-18T13:16:17.098Z,1010.76
2019-02-18T13:17:17.088Z,1010.79
2019-02-18T13:18:17.074Z,1010.82
2019-02-18T13:19:17.093Z,1010.77
2019-02-18T13:20:17.360Z,1010.71
2019-02-18T13:22:17.037Z,1010.68
2019-02-18T13:23:17.026Z,1010.61
2019-02-18T13:24:17.065Z,1010.66
2019-02-18T13:25:17.023Z,1010.62
2019-02-18T13:26:17.309Z,1010.55